Cherry Hill, NJ (08003)

2:24 PM EST on January 18, 2017 (GMT -0500)
Willowdale / Bound Brook | | Change Station
Active Advisory: Small Craft Advisory

Elev 100 ft 39.88 °N, 74.98 °W | Updated 20 seconds ago

Overcast
Overcast
44.5 °F
Feels Like 44 °F
N
1.0
Wind Variable Wind from WNW
Gusts 7.0 mph

Today
High -- | Low -- °F
--% Chance of Precip.
Yesterday
High -- | Low -- °F
Precip. -- in
Pressure 29.93 in
Visibility 10.0 miles
Clouds Overcast 1500 ft
Windchill 44 °F
Dew Point 42 °F
Humidity 89%
Rainfall 0.27 in
Snow Depth Not available.
7:18 AM 5:03 PM
Waning Gibbous, 61% visible
METAR KVAY 181854Z AUTO 35008KT 10SM OVC015 07/04 A2993 RMK AO2 SLP134 T00670044 TSNO
Pressure 29.93 in
Visibility 10.0 miles
Clouds Overcast 1500 ft
Windchill 44 °F
Dew Point 42 °F
Humidity 89%
Rainfall 0.27 in
Snow Depth Not available.
7:18 AM 5:03 PM
Waning Gibbous, 61% visible
METAR KVAY 181854Z AUTO 35008KT 10SM OVC015 07/04 A2993 RMK AO2 SLP134 T00670044 TSNO

Get Your Daily Forecast Email!

Thanks for signing up!

Be on the lookout for a verification email in your inbox.

You'll start receiving the daily forecast at 8 AM.

×

10-Day Weather Forecast

Almanac

Astronomy

Jan. 18, 2017 Rise Set
Actual Time
Civil Twilight
Nautical Twilight
Astronomical Twilight
Moon
Length of Visible Light
Length of Day
Tomorrow will be .
, % of the Moon is Illuminated

Today's Extremes

State Highs State Lows

Community

WunderPhotos

Upload Photos

1,962,540 photos uploaded!

WunderBlog® & News

Nearby

Air Quality

  Air Quality AQ Index Pollutant
Not available.

Snow Depth

Station Depth Elevation

Earthquake Activity

City Distance Mag. Time & Date
Minimum magnitude displayed is 2.5.

Coastal Water Temperatures

Place Temperature

Stations

Nearby Weather Stations

Station Location Temp. Windchill Dew Point Humidity Wind Precip. Elev Updated Type
                   

Watches & Warnings

Small Craft Advisory
Issued: 3:08 AM EST Jan. 18, 2017 – National Weather Service

... Small Craft Advisory in effect from 1 PM this afternoon to
9 PM EST this evening...

The National Weather Service in Mount Holly has issued a Small
Craft Advisory... which is in effect from 1 PM this afternoon to
9 PM EST this evening.

* Location... the Delaware Bay

* winds... northwest 10 to 15 kt with gusts up to 25 kt.

* Seas... 1 to 3 feet.

* Timing... the strongest winds should occur between 4 PM and 7
PM.

Precautionary/preparedness actions...

A Small Craft Advisory means that wind speeds of 25 to 33 knots
are expected to produce hazardous wave conditions to small craft.
Inexperienced mariners... especially those operating smaller
vessels should avoid navigating in these conditions.



Drag